sensor_id;sensor_type;location;lat;lon;timestamp;pressure;altitude;pressure_sealevel;temperature;humidity
21730;BME280;11027;51.030;13.812;2024-02-26T00:00:08;98977.50;;;5.85;70.83
21730;BME280;11027;51.030;13.812;2024-02-26T00:02:35;98977.50;;;5.85;71.05
21730;BME280;11027;51.030;13.812;2024-02-26T00:05:03;98972.94;;;5.85;71.26
21730;BME280;11027;51.030;13.812;2024-02-26T00:07:28;98977.50;;;5.85;71.27
21730;BME280;11027;51.030;13.812;2024-02-26T00:09:54;98968.09;;;5.80;71.38
21730;BME280;11027;51.030;13.812;2024-02-26T00:12:19;98969.81;;;5.73;70.98
21730;BME280;11027;51.030;13.812;2024-02-26T00:14:44;98967.16;;;5.65;70.73
21730;BME280;11027;51.030;13.812;2024-02-26T00:17:11;98974.66;;;5.55;70.62
21730;BME280;11027;51.030;13.812;2024-02-26T00:19:36;98971.81;;;5.48;70.58
21730;BME280;11027;51.030;13.812;2024-02-26T00:22:01;98972.16;;;5.45;70.54
21730;BME280;11027;51.030;13.812;2024-02-26T00:24:26;98972.16;;;5.45;70.60
21730;BME280;11027;51.030;13.812;2024-02-26T00:26:51;98967.47;;;5.39;70.96
21730;BME280;11027;51.030;13.812;2024-02-26T00:29:19;98964.97;;;5.37;71.20
21730;BME280;11027;51.030;13.812;2024-02-26T00:31:44;98961.22;;;5.38;71.56
21730;BME280;11027;51.030;13.812;2024-02-26T00:34:10;98957.88;;;5.36;72.09
21730;BME280;11027;51.030;13.812;2024-02-26T00:36:35;98958.69;;;5.37;72.33
21730;BME280;11027;51.030;13.812;2024-02-26T00:39:00;98956.19;;;5.35;72.53
21730;BME280;11027;51.030;13.812;2024-02-26T00:41:25;98958.91;;;5.35;72.63
21730;BME280;11027;51.030;13.812;2024-02-26T00:43:50;98964.97;;;5.37;72.45
21730;BME280;11027;51.030;13.812;2024-02-26T00:46:15;98959.19;;;5.40;72.30
21730;BME280;11027;51.030;13.812;2024-02-26T00:48:41;98955.16;;;5.36;72.25
21730;BME280;11027;51.030;13.812;2024-02-26T00:51:06;98953.66;;;5.34;72.11
21730;BME280;11027;51.030;13.812;2024-02-26T00:53:32;98947.44;;;5.33;71.93
21730;BME280;11027;51.030;13.812;2024-02-26T00:55:57;98952.84;;;5.33;71.92
21730;BME280;11027;51.030;13.812;2024-02-26T00:58:24;98947.44;;;5.33;72.08
21730;BME280;11027;51.030;13.812;2024-02-26T01:00:49;98940.69;;;5.29;72.11
21730;BME280;11027;51.030;13.812;2024-02-26T01:03:14;98940.69;;;5.29;72.07
21730;BME280;11027;51.030;13.812;2024-02-26T01:05:39;98948.47;;;5.24;72.31
21730;BME280;11027;51.030;13.812;2024-02-26T01:08:05;98947.97;;;5.20;72.38
21730;BME280;11027;51.030;13.812;2024-02-26T01:10:30;98945.44;;;5.19;72.51
21730;BME280;11027;51.030;13.812;2024-02-26T01:12:56;98944.13;;;5.15;72.38
21730;BME280;11027;51.030;13.812;2024-02-26T01:15:21;98934.69;;;5.11;72.33
21730;BME280;11027;51.030;13.812;2024-02-26T01:17:48;98935.72;;;5.10;72.43
21730;BME280;11027;51.030;13.812;2024-02-26T01:20:14;98941.28;;;5.08;72.54
21730;BME280;11027;51.030;13.812;2024-02-26T01:22:39;98935.72;;;5.10;72.27
21730;BME280;11027;51.030;13.812;2024-02-26T01:25:05;98944.81;;;5.09;72.45
21730;BME280;11027;51.030;13.812;2024-02-26T01:27:31;98931.53;;;5.07;72.49
21730;BME280;11027;51.030;13.812;2024-02-26T01:29:56;98930.66;;;5.07;72.71
21730;BME280;11027;51.030;13.812;2024-02-26T01:32:21;98927.66;;;5.01;72.77
21730;BME280;11027;51.030;13.812;2024-02-26T01:34:46;98923.47;;;4.99;72.60
21730;BME280;11027;51.030;13.812;2024-02-26T01:37:11;98919.22;;;4.96;72.72
21730;BME280;11027;51.030;13.812;2024-02-26T01:39:37;98919.59;;;4.93;72.39
21730;BME280;11027;51.030;13.812;2024-02-26T01:42:02;98908.31;;;4.90;72.21
21730;BME280;11027;51.030;13.812;2024-02-26T01:44:27;98908.16;;;4.83;72.09
21730;BME280;11027;51.030;13.812;2024-02-26T01:46:53;98901.44;;;4.79;71.88
21730;BME280;11027;51.030;13.812;2024-02-26T01:49:18;98897.56;;;4.73;71.82
21730;BME280;11027;51.030;13.812;2024-02-26T01:51:44;98901.63;;;4.69;71.76
21730;BME280;11027;51.030;13.812;2024-02-26T01:54:10;98899.28;;;4.66;71.74
21730;BME280;11027;51.030;13.812;2024-02-26T01:56:35;98897.44;;;4.67;71.62
21730;BME280;11027;51.030;13.812;2024-02-26T01:59:01;98889.00;;;4.61;71.67
21730;BME280;11027;51.030;13.812;2024-02-26T02:01:27;98895.09;;;4.55;71.80
21730;BME280;11027;51.030;13.812;2024-02-26T02:03:53;98884.47;;;4.54;71.89
21730;BME280;11027;51.030;13.812;2024-02-26T02:06:19;98881.78;;;4.54;71.97
21730;BME280;11027;51.030;13.812;2024-02-26T02:08:45;98886.34;;;4.53;72.08
21730;BME280;11027;51.030;13.812;2024-02-26T02:11:10;98884.63;;;4.52;72.22
21730;BME280;11027;51.030;13.812;2024-02-26T02:13:36;98885.31;;;4.54;72.25
21730;BME280;11027;51.030;13.812;2024-02-26T02:16:01;98884.31;;;4.55;72.46
21730;BME280;11027;51.030;13.812;2024-02-26T02:18:27;98884.31;;;4.55;72.80
21730;BME280;11027;51.030;13.812;2024-02-26T02:20:53;98884.47;;;4.54;73.13
21730;BME280;11027;51.030;13.812;2024-02-26T02:23:18;98880.13;;;4.53;72.86
21730;BME280;11027;51.030;13.812;2024-02-26T02:25:43;98873.84;;;4.52;73.16
21730;BME280;11027;51.030;13.812;2024-02-26T02:28:09;98881.28;;;4.50;73.13
21730;BME280;11027;51.030;13.812;2024-02-26T02:30:34;98874.22;;;4.49;73.24
21730;BME280;11027;51.030;13.812;2024-02-26T02:33:00;98872.88;;;4.45;73.14
21730;BME280;11027;51.030;13.812;2024-02-26T02:35:25;98880.31;;;4.43;73.12
21730;BME280;11027;51.030;13.812;2024-02-26T02:37:52;98874.41;;;4.39;73.23
21730;BME280;11027;51.030;13.812;2024-02-26T02:40:17;98870.22;;;4.37;73.15
21730;BME280;11027;51.030;13.812;2024-02-26T02:42:42;98866.84;;;4.35;73.18
21730;BME280;11027;51.030;13.812;2024-02-26T02:45:07;98868.88;;;4.33;73.03
21730;BME280;11027;51.030;13.812;2024-02-26T02:47:35;98863.81;;;4.30;73.00
21730;BME280;11027;51.030;13.812;2024-02-26T02:50:01;98869.19;;;4.30;73.02
21730;BME280;11027;51.030;13.812;2024-02-26T02:52:26;98863.50;;;4.25;73.23
21730;BME280;11027;51.030;13.812;2024-02-26T02:54:51;98869.88;;;4.24;73.45
21730;BME280;11027;51.030;13.812;2024-02-26T02:57:16;98870.56;;;4.17;73.55
21730;BME280;11027;51.030;13.812;2024-02-26T02:59:41;98870.75;;;4.16;73.60
21730;BME280;11027;51.030;13.812;2024-02-26T03:02:06;98880.03;;;4.13;73.61
21730;BME280;11027;51.030;13.812;2024-02-26T03:04:31;98878.34;;;4.12;73.62
21730;BME280;11027;51.030;13.812;2024-02-26T03:06:57;98880.69;;;4.07;73.58
21730;BME280;11027;51.030;13.812;2024-02-26T03:09:22;98882.72;;;4.05;73.57
21730;BME280;11027;51.030;13.812;2024-02-26T03:11:48;98885.59;;;4.04;73.46
21730;BME280;11027;51.030;13.812;2024-02-26T03:14:13;98878.03;;;3.99;73.67
21730;BME280;11027;51.030;13.812;2024-02-26T03:16:38;98889.16;;;4.04;74.14
21730;BME280;11027;51.030;13.812;2024-02-26T03:19:04;98887.13;;;4.06;74.19
21730;BME280;11027;51.030;13.812;2024-02-26T03:21:29;98878.69;;;4.09;74.22
21730;BME280;11027;51.030;13.812;2024-02-26T03:23:54;98886.44;;;4.12;73.92
21730;BME280;11027;51.030;13.812;2024-02-26T03:26:19;98889.47;;;4.09;73.86
21730;BME280;11027;51.030;13.812;2024-02-26T03:28:44;98894.69;;;4.11;73.74
21730;BME280;11027;51.030;13.812;2024-02-26T03:31:10;98894.84;;;4.09;73.70
21730;BME280;11027;51.030;13.812;2024-02-26T03:33:35;98894.19;;;4.07;73.70
21730;BME280;11027;51.030;13.812;2024-02-26T03:36:00;98899.72;;;4.06;73.76
21730;BME280;11027;51.030;13.812;2024-02-26T03:38:26;98897.91;;;4.06;73.58
21730;BME280;11027;51.030;13.812;2024-02-26T03:40:51;98902.63;;;4.04;73.54
21730;BME280;11027;51.030;13.812;2024-02-26T03:43:16;98908.00;;;4.04;73.61
21730;BME280;11027;51.030;13.812;2024-02-26T03:45:42;98901.94;;;4.02;73.43
21730;BME280;11027;51.030;13.812;2024-02-26T03:48:07;98910.03;;;4.02;73.81
21730;BME280;11027;51.030;13.812;2024-02-26T03:50:32;98916.94;;;3.96;73.77
21730;BME280;11027;51.030;13.812;2024-02-26T03:52:58;98920.31;;;3.98;73.61
21730;BME280;11027;51.030;13.812;2024-02-26T03:55:23;98912.22;;;3.98;73.77
21730;BME280;11027;51.030;13.812;2024-02-26T03:57:50;98917.44;;;4.00;73.56
21730;BME280;11027;51.030;13.812;2024-02-26T04:00:15;98915.75;;;3.99;73.57
21730;BME280;11027;51.030;13.812;2024-02-26T04:02:41;98922.66;;;3.93;73.75
21730;BME280;11027;51.030;13.812;2024-02-26T04:05:08;98922.13;;;3.90;73.72
21730;BME280;11027;51.030;13.812;2024-02-26T04:07:34;98922.47;;;3.87;73.79
21730;BME280;11027;51.030;13.812;2024-02-26T04:10:00;98922.81;;;3.84;73.87
21730;BME280;11027;51.030;13.812;2024-02-26T04:12:25;98926.53;;;3.83;73.85
21730;BME280;11027;51.030;13.812;2024-02-26T04:14:50;98919.78;;;3.78;73.95
21730;BME280;11027;51.030;13.812;2024-02-26T04:17:15;98924.66;;;3.75;74.01
21730;BME280;11027;51.030;13.812;2024-02-26T04:19:40;98918.75;;;3.71;74.04
21730;BME280;11027;51.030;13.812;2024-02-26T04:22:05;98927.88;;;3.70;73.79
21730;BME280;11027;51.030;13.812;2024-02-26T04:24:30;98924.50;;;3.68;73.66
21730;BME280;11027;51.030;13.812;2024-02-26T04:26:56;98921.13;;;3.66;73.55
21730;BME280;11027;51.030;13.812;2024-02-26T04:29:21;98925.84;;;3.64;73.58
21730;BME280;11027;51.030;13.812;2024-02-26T04:31:46;98926.84;;;3.63;73.52
21730;BME280;11027;51.030;13.812;2024-02-26T04:34:11;98929.22;;;3.66;73.58
21730;BME280;11027;51.030;13.812;2024-02-26T04:36:36;98921.44;;;3.63;73.51
21730;BME280;11027;51.030;13.812;2024-02-26T04:39:02;98923.47;;;3.61;73.83
21730;BME280;11027;51.030;13.812;2024-02-26T04:41:27;98919.41;;;3.57;73.81
21730;BME280;11027;51.030;13.812;2024-02-26T04:43:53;98932.88;;;3.57;74.00
21730;BME280;11027;51.030;13.812;2024-02-26T04:46:18;98932.03;;;3.56;74.02
21730;BME280;11027;51.030;13.812;2024-02-26T04:48:43;98922.78;;;3.51;73.97
21730;BME280;11027;51.030;13.812;2024-02-26T04:51:10;98930.19;;;3.49;73.99
21730;BME280;11027;51.030;13.812;2024-02-26T04:53:35;98928.81;;;3.45;74.14
21730;BME280;11027;51.030;13.812;2024-02-26T04:56:01;98928.16;;;3.43;74.18
21730;BME280;11027;51.030;13.812;2024-02-26T04:58:26;98928.97;;;3.43;74.16
21730;BME280;11027;51.030;13.812;2024-02-26T05:00:51;98940.44;;;3.45;74.23
21730;BME280;11027;51.030;13.812;2024-02-26T05:03:16;98937.94;;;3.44;74.12
21730;BME280;11027;51.030;13.812;2024-02-26T05:05:42;98939.94;;;3.42;74.03
21730;BME280;11027;51.030;13.812;2024-02-26T05:08:08;98942.28;;;3.36;74.22
21730;BME280;11027;51.030;13.812;2024-02-26T05:10:33;98946.28;;;3.32;74.16
21730;BME280;11027;51.030;13.812;2024-02-26T05:12:58;98945.47;;;3.32;74.25
21730;BME280;11027;51.030;13.812;2024-02-26T05:15:24;98943.94;;;3.29;74.09
21730;BME280;11027;51.030;13.812;2024-02-26T05:17:49;98950.31;;;3.28;74.22
21730;BME280;11027;51.030;13.812;2024-02-26T05:20:14;98952.03;;;3.29;74.45
21730;BME280;11027;51.030;13.812;2024-02-26T05:22:39;98956.38;;;3.30;74.39
21730;BME280;11027;51.030;13.812;2024-02-26T05:25:04;98964.16;;;3.33;74.52
21730;BME280;11027;51.030;13.812;2024-02-26T05:27:30;98955.56;;;3.38;74.99
21730;BME280;11027;51.030;13.812;2024-02-26T05:29:55;98948.00;;;3.33;75.01
21730;BME280;11027;51.030;13.812;2024-02-26T05:32:20;98955.72;;;3.28;75.08
21730;BME280;11027;51.030;13.812;2024-02-26T05:34:45;98952.66;;;3.23;75.02
21730;BME280;11027;51.030;13.812;2024-02-26T05:37:11;98959.06;;;3.22;75.02
21730;BME280;11027;51.030;13.812;2024-02-26T05:39:36;98950.13;;;3.22;74.81
21730;BME280;11027;51.030;13.812;2024-02-26T05:42:01;98959.72;;;3.24;74.74
21730;BME280;11027;51.030;13.812;2024-02-26T05:44:26;98955.72;;;3.28;74.99
21730;BME280;11027;51.030;13.812;2024-02-26T05:46:52;98965.28;;;3.31;74.83
21730;BME280;11027;51.030;13.812;2024-02-26T05:49:17;98969.53;;;3.33;75.30
21730;BME280;11027;51.030;13.812;2024-02-26T05:51:42;98961.28;;;3.35;75.53
21730;BME280;11027;51.030;13.812;2024-02-26T05:54:07;98967.84;;;3.32;75.77
21730;BME280;11027;51.030;13.812;2024-02-26T05:56:33;98968.19;;;3.29;75.87
21730;BME280;11027;51.030;13.812;2024-02-26T05:58:58;98969.31;;;3.27;75.89
21730;BME280;11027;51.030;13.812;2024-02-26T06:01:23;98969.16;;;3.28;76.01
21730;BME280;11027;51.030;13.812;2024-02-26T06:03:49;98969.16;;;3.28;75.83
21730;BME280;11027;51.030;13.812;2024-02-26T06:06:14;98971.03;;;3.28;75.79
21730;BME280;11027;51.030;13.812;2024-02-26T06:08:40;98967.81;;;3.24;75.60
21730;BME280;11027;51.030;13.812;2024-02-26T06:11:06;98969.81;;;3.22;75.63
21730;BME280;11027;51.030;13.812;2024-02-26T06:13:31;98969.97;;;3.20;75.41
21730;BME280;11027;51.030;13.812;2024-02-26T06:15:57;98973.50;;;3.21;75.59
21730;BME280;11027;51.030;13.812;2024-02-26T06:18:22;98975.19;;;3.22;75.73
21730;BME280;11027;51.030;13.812;2024-02-26T06:20:47;98968.78;;;3.23;75.76
21730;BME280;11027;51.030;13.812;2024-02-26T06:23:13;98967.00;;;3.32;75.88
21730;BME280;11027;51.030;13.812;2024-02-26T06:25:38;98981.66;;;3.37;75.67
21730;BME280;11027;51.030;13.812;2024-02-26T06:28:03;98977.28;;;3.45;75.71
21730;BME280;11027;51.030;13.812;2024-02-26T06:30:28;98976.97;;;3.48;75.60
21730;BME280;11027;51.030;13.812;2024-02-26T06:32:53;98984.03;;;3.49;75.77
21730;BME280;11027;51.030;13.812;2024-02-26T06:35:19;98977.31;;;3.53;75.91
21730;BME280;11027;51.030;13.812;2024-02-26T06:37:44;98980.00;;;3.53;75.94
21730;BME280;11027;51.030;13.812;2024-02-26T06:40:09;98985.75;;;3.58;75.82
21730;BME280;11027;51.030;13.812;2024-02-26T06:42:34;98982.03;;;3.59;75.94
21730;BME280;11027;51.030;13.812;2024-02-26T06:45:00;98980.19;;;3.59;76.05
21730;BME280;11027;51.030;13.812;2024-02-26T06:47:25;98979.03;;;3.62;76.14
21730;BME280;11027;51.030;13.812;2024-02-26T06:49:51;98977.69;;;3.66;76.21
21730;BME280;11027;51.030;13.812;2024-02-26T06:52:16;98970.97;;;3.70;76.29
21730;BME280;11027;51.030;13.812;2024-02-26T06:54:41;98963.88;;;3.77;76.28
21730;BME280;11027;51.030;13.812;2024-02-26T06:57:06;98971.66;;;3.80;76.33
21730;BME280;11027;51.030;13.812;2024-02-26T06:59:31;98972.66;;;3.88;76.24
21730;BME280;11027;51.030;13.812;2024-02-26T07:01:57;98972.34;;;3.91;76.22
21730;BME280;11027;51.030;13.812;2024-02-26T07:04:22;98979.06;;;3.95;76.29
21730;BME280;11027;51.030;13.812;2024-02-26T07:06:50;98976.72;;;4.00;76.53
21730;BME280;11027;51.030;13.812;2024-02-26T07:09:15;98984.97;;;4.07;76.41
21730;BME280;11027;51.030;13.812;2024-02-26T07:11:40;98986.16;;;4.12;76.52
21730;BME280;11027;51.030;13.812;2024-02-26T07:14:08;98979.22;;;4.18;76.65
21730;BME280;11027;51.030;13.812;2024-02-26T07:16:33;98980.09;;;4.27;76.68
21730;BME280;11027;51.030;13.812;2024-02-26T07:18:58;98984.66;;;4.34;76.60
21730;BME280;11027;51.030;13.812;2024-02-26T07:21:26;98974.84;;;4.41;76.47
21730;BME280;11027;51.030;13.812;2024-02-26T07:23:52;98974.16;;;4.48;76.51
21730;BME280;11027;51.030;13.812;2024-02-26T07:26:20;98968.94;;;4.54;76.56
21730;BME280;11027;51.030;13.812;2024-02-26T07:28:45;98977.34;;;4.59;76.41
21730;BME280;11027;51.030;13.812;2024-02-26T07:31:10;98975.34;;;4.61;76.56
21730;BME280;11027;51.030;13.812;2024-02-26T07:33:39;98976.66;;;4.66;76.61
21730;BME280;11027;51.030;13.812;2024-02-26T07:36:04;98979.53;;;4.64;76.80
21730;BME280;11027;51.030;13.812;2024-02-26T07:38:32;98982.06;;;4.66;76.96
21730;BME280;11027;51.030;13.812;2024-02-26T07:40:58;98974.47;;;4.69;77.07
21730;BME280;11027;51.030;13.812;2024-02-26T07:43:23;98981.38;;;4.72;76.97
21730;BME280;11027;51.030;13.812;2024-02-26T07:45:51;98981.06;;;4.75;77.27
21730;BME280;11027;51.030;13.812;2024-02-26T07:48:16;98974.63;;;4.76;77.33
21730;BME280;11027;51.030;13.812;2024-02-26T07:50:41;98987.59;;;4.80;77.43
21730;BME280;11027;51.030;13.812;2024-02-26T07:53:06;98979.00;;;4.85;77.34
21730;BME280;11027;51.030;13.812;2024-02-26T07:55:32;98980.84;;;4.93;77.39
21730;BME280;11027;51.030;13.812;2024-02-26T07:57:57;98978.97;;;4.93;77.38
21730;BME280;11027;51.030;13.812;2024-02-26T08:00:22;98974.25;;;4.95;77.43
21730;BME280;11027;51.030;13.812;2024-02-26T08:02:50;98974.53;;;5.00;77.46
21730;BME280;11027;51.030;13.812;2024-02-26T08:05:15;98976.91;;;5.04;77.51
21730;BME280;11027;51.030;13.812;2024-02-26T08:07:42;98975.53;;;5.08;77.72
21730;BME280;11027;51.030;13.812;2024-02-26T08:10:08;98976.72;;;5.13;78.09
21730;BME280;11027;51.030;13.812;2024-02-26T08:12:33;98974.16;;;5.20;78.38
21730;BME280;11027;51.030;13.812;2024-02-26T08:14:58;98971.41;;;5.28;78.62
21730;BME280;11027;51.030;13.812;2024-02-26T08:17:23;98969.69;;;5.35;78.60
21730;BME280;11027;51.030;13.812;2024-02-26T08:19:49;98980.47;;;5.44;78.65
21730;BME280;11027;51.030;13.812;2024-02-26T08:22:14;98984.78;;;5.53;78.91
21730;BME280;11027;51.030;13.812;2024-02-26T08:24:41;98983.38;;;5.65;79.52
21730;BME280;11027;51.030;13.812;2024-02-26T08:27:06;98984.84;;;5.76;79.71
21730;BME280;11027;51.030;13.812;2024-02-26T08:29:32;98979.19;;;5.86;79.63
21730;BME280;11027;51.030;13.812;2024-02-26T08:31:57;98988.63;;;5.98;79.84
21730;BME280;11027;51.030;13.812;2024-02-26T08:34:22;98984.81;;;6.07;79.63
21730;BME280;11027;51.030;13.812;2024-02-26T08:36:47;98989.16;;;6.16;79.67
21730;BME280;11027;51.030;13.812;2024-02-26T08:39:14;98995.16;;;6.27;79.75
21730;BME280;11027;51.030;13.812;2024-02-26T08:41:39;98985.94;;;6.36;79.64
21730;BME280;11027;51.030;13.812;2024-02-26T08:44:04;98995.66;;;6.45;79.70
21730;BME280;11027;51.030;13.812;2024-02-26T08:46:29;98996.59;;;6.52;79.80
21730;BME280;11027;51.030;13.812;2024-02-26T08:48:54;98990.94;;;6.62;79.96
21730;BME280;11027;51.030;13.812;2024-02-26T08:51:19;98990.03;;;6.70;79.99
21730;BME280;11027;51.030;13.812;2024-02-26T08:53:45;98982.88;;;6.77;79.89
21730;BME280;11027;51.030;13.812;2024-02-26T08:56:10;98987.53;;;6.83;79.92
21730;BME280;11027;51.030;13.812;2024-02-26T08:58:42;98980.34;;;6.90;79.87
21730;BME280;11027;51.030;13.812;2024-02-26T09:01:07;98979.78;;;6.95;79.58
21730;BME280;11027;51.030;13.812;2024-02-26T09:03:32;98985.31;;;7.01;79.53
21730;BME280;11027;51.030;13.812;2024-02-26T09:05:57;98995.38;;;7.08;79.23
21730;BME280;11027;51.030;13.812;2024-02-26T09:08:22;98983.16;;;7.12;79.32
21730;BME280;11027;51.030;13.812;2024-02-26T09:10:47;98988.66;;;7.18;79.21
21730;BME280;11027;51.030;13.812;2024-02-26T09:13:13;98978.94;;;7.24;79.05
21730;BME280;11027;51.030;13.812;2024-02-26T09:15:38;98975.28;;;7.32;79.23
21730;BME280;11027;51.030;13.812;2024-02-26T09:18:03;98978.25;;;7.37;79.19
21730;BME280;11027;51.030;13.812;2024-02-26T09:20:28;98977.50;;;7.43;78.90
21730;BME280;11027;51.030;13.812;2024-02-26T09:22:53;98975.91;;;7.49;78.89
21730;BME280;11027;51.030;13.812;2024-02-26T09:25:19;98967.66;;;7.57;78.64
21730;BME280;11027;51.030;13.812;2024-02-26T09:27:44;98967.56;;;7.65;78.47
21730;BME280;11027;51.030;13.812;2024-02-26T09:30:10;98974.91;;;7.71;78.40
21730;BME280;11027;51.030;13.812;2024-02-26T09:32:35;98978.38;;;7.80;78.26
21730;BME280;11027;51.030;13.812;2024-02-26T09:35:01;98983.50;;;7.90;77.99
21730;BME280;11027;51.030;13.812;2024-02-26T09:37:26;98972.69;;;7.96;77.68
21730;BME280;11027;51.030;13.812;2024-02-26T09:39:51;98976.53;;;8.02;77.40
21730;BME280;11027;51.030;13.812;2024-02-26T09:42:19;98992.84;;;8.09;77.33
21730;BME280;11027;51.030;13.812;2024-02-26T09:44:45;98993.56;;;8.17;77.10
21730;BME280;11027;51.030;13.812;2024-02-26T09:47:11;98988.00;;;8.26;76.82
21730;BME280;11027;51.030;13.812;2024-02-26T09:49:38;98997.69;;;8.35;76.83
21730;BME280;11027;51.030;13.812;2024-02-26T09:52:04;98985.22;;;8.40;76.78
21730;BME280;11027;51.030;13.812;2024-02-26T09:54:29;98994.09;;;8.49;76.31
21730;BME280;11027;51.030;13.812;2024-02-26T09:56:57;98977.81;;;8.49;75.87
21730;BME280;11027;51.030;13.812;2024-02-26T09:59:24;98984.53;;;8.53;75.52
21730;BME280;11027;51.030;13.812;2024-02-26T10:01:49;98990.00;;;8.60;75.50
21730;BME280;11027;51.030;13.812;2024-02-26T10:04:15;98995.50;;;8.67;75.25
21730;BME280;11027;51.030;13.812;2024-02-26T10:06:41;98992.63;;;8.75;75.00
21730;BME280;11027;51.030;13.812;2024-02-26T10:09:08;99002.72;;;8.81;74.54
21730;BME280;11027;51.030;13.812;2024-02-26T10:11:34;98998.50;;;8.78;73.69
21730;BME280;11027;51.030;13.812;2024-02-26T10:14:00;99003.53;;;8.81;73.49
21730;BME280;11027;51.030;13.812;2024-02-26T10:16:25;99006.56;;;8.93;73.56
21730;BME280;11027;51.030;13.812;2024-02-26T10:18:52;99007.22;;;9.02;73.52
21730;BME280;11027;51.030;13.812;2024-02-26T10:21:19;99010.84;;;9.09;73.15
21730;BME280;11027;51.030;13.812;2024-02-26T10:23:44;99008.78;;;9.18;72.95
21730;BME280;11027;51.030;13.812;2024-02-26T10:26:11;99006.97;;;9.25;72.73
21730;BME280;11027;51.030;13.812;2024-02-26T10:28:37;99013.47;;;9.31;72.47
21730;BME280;11027;51.030;13.812;2024-02-26T10:31:02;99007.38;;;9.29;71.45
21730;BME280;11027;51.030;13.812;2024-02-26T10:33:37;99009.53;;;9.33;71.44
21730;BME280;11027;51.030;13.812;2024-02-26T10:36:05;99010.81;;;9.37;71.32
21730;BME280;11027;51.030;13.812;2024-02-26T10:38:35;99004.72;;;9.35;70.82
21730;BME280;11027;51.030;13.812;2024-02-26T10:41:03;99007.44;;;9.35;70.77
21730;BME280;11027;51.030;13.812;2024-02-26T10:43:29;99005.13;;;9.39;70.62
21730;BME280;11027;51.030;13.812;2024-02-26T10:45:55;99007.28;;;9.44;70.67
21730;BME280;11027;51.030;13.812;2024-02-26T10:48:20;99007.50;;;9.49;70.60
21730;BME280;11027;51.030;13.812;2024-02-26T10:50:45;99009.41;;;9.55;70.11
21730;BME280;11027;51.030;13.812;2024-02-26T10:53:17;99017.81;;;9.60;70.09
21730;BME280;11027;51.030;13.812;2024-02-26T10:58:10;99008.19;;;9.64;69.46
21730;BME280;11027;51.030;13.812;2024-02-26T11:00:36;99017.38;;;9.63;69.18
21730;BME280;11027;51.030;13.812;2024-02-26T11:03:03;99010.72;;;9.66;69.00
21730;BME280;11027;51.030;13.812;2024-02-26T11:05:30;99009.69;;;9.73;68.98
21730;BME280;11027;51.030;13.812;2024-02-26T11:07:58;99016.38;;;9.77;68.59
21730;BME280;11027;51.030;13.812;2024-02-26T11:10:23;99023.72;;;9.84;68.47
21730;BME280;11027;51.030;13.812;2024-02-26T11:12:50;99020.44;;;9.95;68.14
21730;BME280;11027;51.030;13.812;2024-02-26T11:15:16;99011.25;;;10.09;68.17
21730;BME280;11027;51.030;13.812;2024-02-26T11:17:41;99014.00;;;10.16;67.29
21730;BME280;11027;51.030;13.812;2024-02-26T11:20:09;99006.06;;;10.28;67.09
21730;BME280;11027;51.030;13.812;2024-02-26T11:22:36;99002.13;;;10.44;66.77
21730;BME280;11027;51.030;13.812;2024-02-26T11:25:01;99005.09;;;10.55;66.23
21730;BME280;11027;51.030;13.812;2024-02-26T11:27:27;99008.44;;;10.71;66.38
21730;BME280;11027;51.030;13.812;2024-02-26T11:29:55;99000.88;;;10.86;65.81
21730;BME280;11027;51.030;13.812;2024-02-26T11:32:22;98992.25;;;11.02;65.63
21730;BME280;11027;51.030;13.812;2024-02-26T11:34:47;98998.13;;;11.13;64.88
21730;BME280;11027;51.030;13.812;2024-02-26T11:37:14;99004.19;;;11.21;64.67
21730;BME280;11027;51.030;13.812;2024-02-26T11:39:54;99000.78;;;11.33;64.49
21730;BME280;11027;51.030;13.812;2024-02-26T11:42:24;99000.78;;;11.39;63.81
21730;BME280;11027;51.030;13.812;2024-02-26T11:44:50;98997.84;;;11.48;63.48
21730;BME280;11027;51.030;13.812;2024-02-26T11:47:22;98995.28;;;11.53;62.98
21730;BME280;11027;51.030;13.812;2024-02-26T11:49:48;98994.88;;;11.56;62.77
21730;BME280;11027;51.030;13.812;2024-02-26T11:52:14;98988.09;;;11.65;62.64
21730;BME280;11027;51.030;13.812;2024-02-26T11:54:53;98986.34;;;11.77;62.34
21730;BME280;11027;51.030;13.812;2024-02-26T11:57:28;98978.38;;;11.89;62.41
21730;BME280;11027;51.030;13.812;2024-02-26T11:59:55;98987.97;;;11.98;61.89
21730;BME280;11027;51.030;13.812;2024-02-26T12:07:47;98992.88;;;11.90;60.03
21730;BME280;11027;51.030;13.812;2024-02-26T12:10:14;98988.88;;;11.86;60.06
21730;BME280;11027;51.030;13.812;2024-02-26T12:12:41;98995.75;;;11.95;60.45
21730;BME280;11027;51.030;13.812;2024-02-26T12:15:08;98994.88;;;12.01;60.49
21730;BME280;11027;51.030;13.812;2024-02-26T12:17:34;98996.38;;;11.97;59.98
21730;BME280;11027;51.030;13.812;2024-02-26T12:20:10;98998.06;;;11.98;59.57
21730;BME280;11027;51.030;13.812;2024-02-26T12:22:38;99000.75;;;12.05;59.84
21730;BME280;11027;51.030;13.812;2024-02-26T12:25:04;99005.19;;;11.99;59.33
21730;BME280;11027;51.030;13.812;2024-02-26T12:27:31;99008.16;;;11.91;59.16
21730;BME280;11027;51.030;13.812;2024-02-26T12:29:56;99011.13;;;11.82;58.77
21730;BME280;11027;51.030;13.812;2024-02-26T12:32:21;99011.16;;;11.76;58.89
21730;BME280;11027;51.030;13.812;2024-02-26T12:34:48;99011.59;;;11.66;58.70
21730;BME280;11027;51.030;13.812;2024-02-26T12:37:14;99000.69;;;11.66;59.07
21730;BME280;11027;51.030;13.812;2024-02-26T12:39:40;99009.06;;;11.71;58.94
21730;BME280;11027;51.030;13.812;2024-02-26T12:42:06;99011.38;;;11.74;59.25
21730;BME280;11027;51.030;13.812;2024-02-26T12:44:31;99006.53;;;11.76;59.17
21730;BME280;11027;51.030;13.812;2024-02-26T12:47:04;99009.47;;;11.81;58.91
21730;BME280;11027;51.030;13.812;2024-02-26T12:49:29;99007.78;;;11.80;59.01
21730;BME280;11027;51.030;13.812;2024-02-26T12:51:55;99003.56;;;11.85;59.01
21730;BME280;11027;51.030;13.812;2024-02-26T12:54:35;99007.72;;;11.87;59.00
21730;BME280;11027;51.030;13.812;2024-02-26T12:57:05;99007.56;;;11.82;58.65
21730;BME280;11027;51.030;13.812;2024-02-26T12:59:32;99004.47;;;11.72;58.44